createdAt,value
2023-10-29T00:01:05.477Z,9.80
2023-10-29T00:03:34.280Z,9.86
2023-10-29T00:06:01.749Z,9.94
2023-10-29T00:08:29.460Z,9.97
2023-10-29T00:10:57.417Z,10.00
2023-10-29T00:13:26.362Z,9.86
2023-10-29T00:15:54.035Z,9.85
2023-10-29T00:18:22.210Z,9.78
2023-10-29T00:20:49.936Z,9.73
2023-10-29T00:23:17.934Z,9.72
2023-10-29T00:25:45.935Z,9.74
2023-10-29T00:28:13.687Z,9.68
2023-10-29T00:30:41.364Z,9.79
2023-10-29T00:33:09.467Z,9.85
2023-10-29T00:35:37.805Z,9.90
2023-10-29T00:38:05.762Z,9.90
2023-10-29T00:40:39.027Z,9.75
2023-10-29T00:43:06.382Z,9.75
2023-10-29T00:45:34.664Z,9.78
2023-10-29T00:48:02.483Z,9.76
2023-10-29T00:50:30.553Z,9.81
2023-10-29T00:52:59.000Z,9.89
2023-10-29T00:55:26.922Z,9.91
2023-10-29T00:57:54.841Z,9.92
2023-10-29T01:00:24.627Z,10.01
2023-10-29T01:02:56.078Z,10.05
2023-10-29T01:05:24.204Z,10.10
2023-10-29T01:07:52.531Z,10.01
2023-10-29T01:10:22.470Z,10.00
2023-10-29T01:12:51.586Z,10.12
2023-10-29T01:15:19.301Z,10.28
2023-10-29T01:17:48.067Z,10.39
2023-10-29T01:20:18.034Z,10.35
2023-10-29T01:22:45.795Z,10.44
2023-10-29T01:25:13.703Z,10.46
2023-10-29T01:27:42.024Z,10.33
2023-10-29T01:30:11.667Z,10.24
2023-10-29T01:32:39.987Z,10.27
2023-10-29T01:35:08.373Z,10.29
2023-10-29T01:37:35.650Z,10.30
2023-10-29T01:40:03.778Z,10.30
2023-10-29T01:42:31.988Z,10.29
2023-10-29T01:45:01.873Z,10.34
2023-10-29T01:47:34.666Z,10.43
2023-10-29T01:50:02.725Z,10.49
2023-10-29T01:52:30.543Z,10.59
2023-10-29T01:54:58.795Z,10.67
2023-10-29T01:57:26.763Z,10.78
2023-10-29T01:59:54.604Z,10.77
2023-10-29T02:02:26.508Z,10.50
2023-10-29T02:04:55.055Z,10.43
2023-10-29T02:07:24.943Z,10.45
2023-10-29T02:09:52.611Z,10.53
2023-10-29T02:12:22.396Z,10.59
2023-10-29T02:14:56.123Z,10.76
2023-10-29T02:17:26.276Z,10.82
2023-10-29T02:19:56.533Z,10.83
2023-10-29T02:22:30.600Z,10.85
2023-10-29T02:24:58.273Z,10.93
2023-10-29T02:27:26.256Z,11.02
2023-10-29T02:29:55.522Z,10.98
2023-10-29T02:32:31.391Z,10.95
2023-10-29T02:35:04.619Z,10.89
2023-10-29T02:37:34.071Z,10.89
2023-10-29T02:40:02.894Z,10.75
2023-10-29T02:42:30.504Z,10.65
2023-10-29T02:45:00.078Z,10.57
2023-10-29T02:47:27.694Z,10.64
2023-10-29T02:49:55.400Z,10.68
2023-10-29T02:52:23.118Z,10.67
2023-10-29T02:54:51.044Z,10.73
2023-10-29T02:57:18.744Z,10.88
2023-10-29T02:59:46.029Z,10.94
2023-10-29T03:02:13.502Z,11.00
2023-10-29T03:04:42.913Z,10.88
2023-10-29T03:07:12.268Z,10.56
2023-10-29T03:09:41.974Z,10.63
2023-10-29T03:12:10.625Z,10.70
2023-10-29T03:14:37.767Z,10.72
2023-10-29T03:17:05.694Z,10.80
2023-10-29T03:19:34.504Z,10.93
2023-10-29T03:22:05.782Z,10.95
2023-10-29T03:24:34.865Z,10.98
2023-10-29T03:27:02.161Z,10.83
2023-10-29T03:29:31.145Z,10.87
2023-10-29T03:31:58.631Z,10.90
2023-10-29T03:34:27.570Z,10.95
2023-10-29T03:36:56.963Z,10.99
2023-10-29T03:39:25.919Z,11.09
2023-10-29T03:41:53.133Z,11.11
2023-10-29T03:44:20.552Z,11.08
2023-10-29T03:46:52.696Z,10.89
2023-10-29T03:49:20.276Z,10.96
2023-10-29T03:51:48.301Z,11.02
2023-10-29T03:54:15.978Z,10.97
2023-10-29T03:56:43.314Z,10.89
2023-10-29T03:59:11.913Z,10.84
2023-10-29T04:01:39.123Z,10.66
2023-10-29T04:04:08.681Z,10.61
2023-10-29T04:06:36.478Z,10.68
2023-10-29T04:09:03.907Z,10.75
2023-10-29T04:11:31.559Z,10.82
2023-10-29T04:13:59.224Z,10.93
2023-10-29T04:16:28.810Z,10.95
2023-10-29T04:18:58.273Z,10.88
2023-10-29T04:21:25.429Z,10.86
2023-10-29T04:23:54.569Z,10.94
2023-10-29T04:26:21.980Z,11.02
2023-10-29T04:28:50.385Z,11.12
2023-10-29T04:31:17.638Z,11.15
2023-10-29T04:33:49.700Z,11.18
2023-10-29T04:36:26.141Z,11.11
2023-10-29T04:38:53.644Z,10.96
2023-10-29T04:41:20.829Z,10.85
2023-10-29T04:43:49.131Z,10.76
2023-10-29T04:46:17.293Z,10.80
2023-10-29T04:48:45.199Z,10.80
2023-10-29T04:51:12.348Z,10.79
2023-10-29T04:53:40.465Z,10.70
2023-10-29T04:56:07.629Z,10.55
2023-10-29T04:58:34.840Z,10.53
2023-10-29T05:01:04.115Z,10.48
2023-10-29T05:03:31.373Z,10.52
2023-10-29T05:05:58.587Z,10.49
2023-10-29T05:08:25.999Z,10.52
2023-10-29T05:10:53.116Z,10.47
2023-10-29T05:13:21.265Z,10.40
2023-10-29T05:15:48.694Z,10.44
2023-10-29T05:18:17.540Z,10.42
2023-10-29T05:20:44.894Z,10.37
2023-10-29T05:23:12.413Z,10.46
2023-10-29T05:25:40.866Z,10.57
2023-10-29T05:28:08.139Z,10.71
2023-10-29T05:30:37.684Z,10.57
2023-10-29T05:33:04.958Z,10.69
2023-10-29T05:35:32.760Z,10.76
2023-10-29T05:38:00.282Z,10.81
2023-10-29T05:40:27.439Z,10.81
2023-10-29T05:42:56.096Z,10.85
2023-10-29T05:45:23.706Z,10.86
2023-10-29T05:47:51.448Z,10.87
2023-10-29T05:50:18.700Z,11.08
2023-10-29T05:52:50.363Z,11.09
2023-10-29T05:55:21.088Z,11.10
2023-10-29T05:57:48.901Z,11.12
2023-10-29T06:00:16.562Z,11.27
2023-10-29T06:02:44.602Z,11.18
2023-10-29T06:05:12.407Z,11.15
2023-10-29T06:07:44.320Z,11.24
2023-10-29T06:10:14.121Z,11.37
2023-10-29T06:12:42.380Z,11.31
2023-10-29T06:15:11.336Z,11.35
2023-10-29T06:17:42.841Z,11.25
2023-10-29T06:20:12.625Z,11.10
2023-10-29T06:22:40.099Z,11.20
2023-10-29T06:25:09.441Z,11.11
2023-10-29T06:27:36.801Z,11.08
2023-10-29T06:30:05.510Z,11.12
2023-10-29T06:32:35.622Z,11.20
2023-10-29T06:35:04.158Z,11.28
2023-10-29T06:37:31.591Z,11.36
2023-10-29T06:39:59.305Z,11.41
2023-10-29T06:42:28.732Z,11.42
2023-10-29T06:44:56.167Z,11.53
2023-10-29T06:47:23.354Z,11.67
2023-10-29T06:49:53.850Z,11.64
2023-10-29T06:52:21.292Z,11.58
2023-10-29T06:54:49.103Z,11.58
2023-10-29T06:57:16.825Z,11.45
2023-10-29T06:59:46.238Z,11.42
2023-10-29T07:02:13.564Z,11.29
2023-10-29T07:04:41.222Z,11.13
2023-10-29T07:07:09.041Z,11.06
2023-10-29T07:09:36.326Z,10.96
2023-10-29T07:12:04.738Z,11.13
2023-10-29T07:14:33.412Z,11.05
2023-10-29T07:17:00.572Z,11.11
2023-10-29T07:19:28.200Z,11.33
2023-10-29T07:21:55.602Z,11.51
2023-10-29T07:24:22.745Z,11.50
2023-10-29T07:26:50.152Z,11.61
2023-10-29T07:29:19.162Z,11.45
2023-10-29T07:31:46.495Z,11.40
2023-10-29T07:34:14.820Z,11.44
2023-10-29T07:36:44.176Z,11.60
2023-10-29T07:39:12.049Z,11.65
2023-10-29T07:41:39.775Z,11.74
2023-10-29T07:44:07.503Z,11.75
2023-10-29T07:46:35.147Z,11.62
2023-10-29T07:49:03.954Z,11.70
2023-10-29T07:51:31.922Z,11.78
2023-10-29T07:54:02.360Z,11.95
2023-10-29T07:56:30.035Z,11.82
2023-10-29T07:58:57.519Z,11.53
2023-10-29T08:01:24.757Z,11.41
2023-10-29T08:03:57.142Z,11.46
2023-10-29T08:06:24.517Z,11.55
2023-10-29T08:08:54.210Z,11.79
2023-10-29T08:11:22.150Z,11.80
2023-10-29T08:13:49.469Z,11.79
2023-10-29T08:16:16.890Z,11.97
2023-10-29T08:18:44.782Z,12.02
2023-10-29T08:21:12.154Z,12.15
2023-10-29T08:23:42.765Z,12.23
2023-10-29T08:26:10.399Z,12.41
2023-10-29T08:28:37.512Z,12.59
2023-10-29T08:31:05.492Z,12.63
2023-10-29T08:33:33.482Z,12.82
2023-10-29T08:36:00.873Z,12.99
2023-10-29T08:38:28.399Z,13.03
2023-10-29T08:40:56.207Z,13.16
2023-10-29T08:43:23.465Z,13.17
2023-10-29T08:45:51.126Z,13.30
2023-10-29T08:48:19.077Z,13.40
2023-10-29T08:50:46.434Z,13.38
2023-10-29T08:53:14.496Z,13.54
2023-10-29T08:55:42.171Z,13.68
2023-10-29T08:58:10.837Z,13.89
2023-10-29T09:00:46.372Z,14.13
2023-10-29T09:03:15.944Z,13.96
2023-10-29T09:05:44.356Z,13.99
2023-10-29T09:08:12.197Z,13.99
2023-10-29T09:10:43.650Z,14.10
2023-10-29T09:13:13.636Z,14.27
2023-10-29T09:15:41.032Z,14.48
2023-10-29T09:18:08.264Z,14.43
2023-10-29T09:20:37.381Z,14.36
2023-10-29T09:23:06.144Z,14.32
2023-10-29T09:25:33.916Z,14.39
2023-10-29T09:28:06.126Z,14.56
2023-10-29T09:30:34.360Z,14.76
2023-10-29T09:33:02.881Z,14.85
2023-10-29T09:35:30.383Z,15.00
2023-10-29T09:37:58.017Z,15.08
2023-10-29T09:40:27.666Z,15.06
2023-10-29T09:42:57.108Z,15.04
2023-10-29T09:45:28.224Z,15.19
2023-10-29T09:47:59.947Z,15.53
2023-10-29T09:50:27.556Z,15.63
2023-10-29T09:52:55.801Z,15.76
2023-10-29T09:55:26.449Z,15.97
2023-10-29T09:57:53.841Z,16.02
2023-10-29T10:00:21.022Z,16.22
2023-10-29T10:02:53.162Z,16.45
2023-10-29T10:05:22.427Z,16.71
2023-10-29T10:07:50.549Z,16.82
2023-10-29T10:10:18.070Z,17.04
2023-10-29T10:12:49.948Z,17.17
2023-10-29T10:15:20.845Z,17.34
2023-10-29T10:18:16.457Z,17.50
2023-10-29T10:20:58.046Z,17.64
2023-10-29T10:23:25.179Z,17.79
2023-10-29T10:26:00.232Z,17.83
2023-10-29T10:28:27.866Z,17.88
2023-10-29T10:30:55.608Z,17.92
2023-10-29T10:33:23.694Z,18.02
2023-10-29T10:35:52.605Z,18.01
2023-10-29T10:38:21.446Z,18.12
2023-10-29T10:40:58.839Z,18.20
2023-10-29T10:43:28.028Z,18.31
2023-10-29T10:45:56.225Z,18.47
2023-10-29T10:48:26.348Z,18.54
2023-10-29T10:50:55.409Z,18.65
2023-10-29T10:53:25.221Z,18.67
2023-10-29T10:56:03.303Z,18.75
2023-10-29T10:58:32.590Z,18.76
2023-10-29T11:01:00.401Z,18.70
2023-10-29T11:03:33.062Z,18.76
2023-10-29T11:06:04.220Z,18.76
2023-10-29T11:08:32.691Z,18.80
2023-10-29T11:11:00.744Z,18.83
2023-10-29T11:13:28.480Z,18.89
2023-10-29T11:15:56.714Z,19.02
2023-10-29T11:18:33.631Z,18.99
2023-10-29T11:21:05.127Z,18.94
2023-10-29T11:23:33.799Z,18.93
2023-10-29T11:26:31.668Z,18.98
2023-10-29T11:28:59.117Z,18.99
2023-10-29T11:31:26.652Z,19.05
2023-10-29T11:33:56.684Z,19.18
2023-10-29T11:36:30.903Z,19.27
2023-10-29T11:39:16.270Z,19.24
2023-10-29T11:41:49.117Z,19.25
2023-10-29T11:44:23.779Z,19.33
2023-10-29T11:46:57.614Z,19.27
2023-10-29T11:49:27.158Z,19.39
2023-10-29T11:52:02.846Z,19.45
2023-10-29T11:54:38.662Z,19.39
2023-10-29T11:57:06.857Z,19.44
2023-10-29T11:59:57.110Z,19.53
2023-10-29T12:02:26.113Z,19.58
2023-10-29T12:04:55.481Z,19.53
2023-10-29T12:07:33.134Z,19.53
2023-10-29T12:10:01.698Z,19.65
2023-10-29T12:12:31.179Z,19.62
2023-10-29T12:14:58.327Z,19.61
2023-10-29T12:17:26.020Z,19.64
2023-10-29T12:19:53.269Z,19.63
2023-10-29T12:22:20.336Z,19.67
2023-10-29T12:24:56.560Z,19.61
2023-10-29T12:27:24.156Z,19.69
2023-10-29T12:29:52.209Z,19.73
2023-10-29T12:32:23.581Z,19.71
2023-10-29T12:34:59.419Z,19.76
2023-10-29T12:37:31.250Z,19.78
2023-10-29T12:40:03.019Z,19.85
2023-10-29T12:42:53.300Z,19.87
2023-10-29T12:45:28.231Z,19.87
2023-10-29T12:48:12.475Z,19.81
2023-10-29T12:50:54.376Z,19.82
2023-10-29T12:53:25.306Z,19.89
2023-10-29T12:55:53.128Z,19.89
2023-10-29T12:58:21.370Z,19.90
2023-10-29T13:00:48.881Z,19.82
2023-10-29T13:03:16.154Z,19.87
2023-10-29T13:05:43.399Z,19.79
2023-10-29T13:08:13.690Z,19.72
2023-10-29T13:10:44.495Z,19.79
2023-10-29T13:13:17.678Z,19.85
2023-10-29T13:15:44.897Z,19.89
2023-10-29T13:18:13.244Z,19.91
2023-10-29T13:20:41.376Z,20.02
2023-10-29T13:23:09.020Z,20.08
2023-10-29T13:25:38.002Z,20.14
2023-10-29T13:28:05.549Z,20.22
2023-10-29T13:30:34.547Z,20.24
2023-10-29T13:33:02.631Z,20.18
2023-10-29T13:35:29.824Z,20.19
2023-10-29T13:37:57.498Z,20.22
2023-10-29T13:40:26.808Z,20.20
2023-10-29T13:42:55.841Z,20.16
2023-10-29T13:45:23.849Z,20.12
2023-10-29T13:47:52.294Z,20.12
2023-10-29T13:50:20.255Z,20.08
2023-10-29T13:52:48.936Z,20.02
2023-10-29T13:55:21.146Z,19.98
2023-10-29T13:57:48.435Z,19.93
2023-10-29T14:00:17.470Z,19.86
2023-10-29T14:02:46.438Z,19.85
2023-10-29T14:05:13.640Z,19.74
2023-10-29T14:07:41.489Z,19.68
2023-10-29T14:10:09.718Z,19.64
2023-10-29T14:12:37.387Z,19.65
2023-10-29T14:15:07.621Z,19.63
2023-10-29T14:17:35.616Z,19.66
2023-10-29T14:20:05.109Z,19.67
2023-10-29T14:22:32.794Z,19.74
2023-10-29T14:25:02.678Z,19.77
2023-10-29T14:27:30.624Z,19.71
2023-10-29T14:29:58.079Z,19.81
2023-10-29T14:32:26.236Z,19.86
2023-10-29T14:34:53.886Z,19.89
2023-10-29T14:37:24.245Z,19.89
2023-10-29T14:40:00.608Z,19.93
2023-10-29T14:42:31.104Z,19.96
2023-10-29T14:44:58.840Z,19.92
2023-10-29T14:47:26.021Z,19.82
2023-10-29T14:49:53.427Z,19.77
2023-10-29T14:52:20.878Z,19.72
2023-10-29T14:54:48.236Z,19.66
2023-10-29T14:57:28.466Z,19.67
2023-10-29T14:59:58.358Z,19.61
2023-10-29T15:02:26.323Z,19.44
2023-10-29T15:04:56.729Z,19.44
2023-10-29T15:07:25.086Z,19.38
2023-10-29T15:09:53.228Z,19.34
2023-10-29T15:12:21.966Z,19.31
2023-10-29T15:14:49.891Z,19.22
2023-10-29T15:17:21.028Z,19.11
2023-10-29T15:19:55.357Z,19.07
2023-10-29T15:22:22.833Z,19.06
2023-10-29T15:24:51.163Z,18.99
2023-10-29T15:27:19.144Z,18.92
2023-10-29T15:29:47.992Z,18.88
2023-10-29T15:32:15.360Z,18.89
2023-10-29T15:34:43.817Z,18.85
2023-10-29T15:37:11.327Z,18.78
2023-10-29T15:39:41.570Z,18.76
2023-10-29T15:42:09.860Z,18.68
2023-10-29T15:44:37.403Z,18.67
2023-10-29T15:47:05.076Z,18.62
2023-10-29T15:49:32.951Z,18.60
2023-10-29T15:52:03.039Z,18.58
2023-10-29T15:54:30.674Z,18.57
2023-10-29T15:56:57.907Z,18.53
2023-10-29T15:59:25.969Z,18.40
2023-10-29T16:01:53.608Z,18.32
2023-10-29T16:04:21.263Z,18.29
2023-10-29T16:06:49.480Z,18.25
2023-10-29T16:09:16.869Z,17.99
2023-10-29T16:11:48.297Z,17.81
2023-10-29T16:14:16.012Z,17.54
2023-10-29T16:16:47.373Z,17.47
2023-10-29T16:19:14.835Z,17.33
2023-10-29T16:21:44.708Z,17.22
2023-10-29T16:24:11.915Z,17.04
2023-10-29T16:26:39.578Z,16.95
2023-10-29T16:29:06.887Z,16.95
2023-10-29T16:31:34.542Z,16.92
2023-10-29T16:34:02.173Z,16.77
2023-10-29T16:36:30.335Z,16.85
2023-10-29T16:38:59.886Z,17.08
2023-10-29T16:41:29.445Z,17.22
2023-10-29T16:43:57.432Z,17.34
2023-10-29T16:46:30.924Z,17.45
2023-10-29T16:49:02.610Z,17.54
2023-10-29T16:51:31.032Z,17.66
2023-10-29T16:53:58.774Z,17.67
2023-10-29T16:56:26.046Z,17.70
2023-10-29T16:58:53.178Z,17.75
2023-10-29T17:01:21.397Z,17.83
2023-10-29T17:03:49.995Z,17.91
2023-10-29T17:06:19.006Z,17.93
2023-10-29T17:08:48.058Z,17.91
2023-10-29T17:11:16.821Z,17.88
2023-10-29T17:13:44.031Z,17.95
2023-10-29T17:16:11.974Z,17.95
2023-10-29T17:18:41.546Z,17.94
2023-10-29T17:21:18.984Z,17.95
2023-10-29T17:23:54.922Z,17.96
2023-10-29T17:26:22.254Z,17.93
2023-10-29T17:28:51.310Z,17.82
2023-10-29T17:31:20.018Z,17.83
2023-10-29T17:33:47.298Z,17.92
2023-10-29T17:36:17.673Z,18.01
2023-10-29T17:38:45.494Z,18.07
2023-10-29T17:41:18.947Z,18.04
2023-10-29T17:43:47.455Z,17.97
2023-10-29T17:46:18.602Z,17.91
2023-10-29T17:48:48.277Z,17.97
2023-10-29T17:51:16.590Z,17.96
2023-10-29T17:53:48.210Z,17.93
2023-10-29T17:56:17.866Z,17.95
2023-10-29T17:58:54.761Z,17.90
2023-10-29T18:01:23.751Z,17.88
2023-10-29T18:03:55.357Z,17.78
2023-10-29T18:06:24.200Z,17.76
2023-10-29T18:08:53.251Z,17.79
2023-10-29T18:11:22.421Z,17.85
2023-10-29T18:13:49.813Z,17.90
2023-10-29T18:16:19.066Z,17.81
2023-10-29T18:18:50.762Z,17.70
2023-10-29T18:21:18.334Z,17.74
2023-10-29T18:23:47.997Z,17.65
2023-10-29T18:26:15.362Z,17.64
2023-10-29T18:28:43.164Z,17.63
2023-10-29T18:31:12.875Z,17.60
2023-10-29T18:33:45.409Z,17.52
2023-10-29T18:36:15.436Z,17.47
2023-10-29T18:38:43.183Z,17.26
2023-10-29T18:41:14.381Z,17.21
2023-10-29T18:43:48.710Z,17.11
2023-10-29T18:46:19.873Z,17.03
2023-10-29T18:48:47.505Z,17.04
2023-10-29T18:51:20.433Z,16.98
2023-10-29T18:53:47.897Z,16.86
2023-10-29T18:56:16.066Z,16.78
2023-10-29T18:58:54.242Z,16.78
2023-10-29T19:01:22.272Z,16.75
2023-10-29T19:03:51.166Z,16.76
2023-10-29T19:06:22.195Z,16.74
2023-10-29T19:08:50.915Z,16.76
2023-10-29T19:11:18.079Z,16.80
2023-10-29T19:13:45.575Z,16.84
2023-10-29T19:16:13.361Z,16.90
2023-10-29T19:18:43.324Z,17.03
2023-10-29T19:21:11.424Z,17.04
2023-10-29T19:23:38.949Z,17.11
2023-10-29T19:26:09.352Z,17.06
2023-10-29T19:28:36.637Z,16.94
2023-10-29T19:31:23.943Z,16.93
2023-10-29T19:33:56.007Z,16.77
2023-10-29T19:36:24.017Z,16.72
2023-10-29T19:38:52.972Z,16.70
2023-10-29T19:41:26.141Z,16.70
2023-10-29T19:43:56.647Z,16.69
2023-10-29T19:46:23.978Z,16.62
2023-10-29T19:48:54.554Z,16.62
2023-10-29T19:51:25.611Z,16.67
2023-10-29T19:53:52.850Z,16.60
2023-10-29T19:56:23.614Z,16.54
2023-10-29T19:58:51.898Z,16.58
2023-10-29T20:01:23.754Z,16.48
2023-10-29T20:03:51.454Z,16.46
2023-10-29T20:06:19.380Z,16.33
2023-10-29T20:08:47.060Z,16.29
2023-10-29T20:11:18.181Z,16.15
2023-10-29T20:13:51.811Z,16.03
2023-10-29T20:16:19.286Z,15.95
2023-10-29T20:18:47.854Z,15.92
2023-10-29T20:21:19.907Z,15.73
2023-10-29T20:23:52.962Z,15.69
2023-10-29T20:26:20.839Z,15.70
2023-10-29T20:28:53.168Z,15.69
2023-10-29T20:31:20.711Z,15.68
2023-10-29T20:33:48.067Z,15.68
2023-10-29T20:36:16.024Z,15.75
2023-10-29T20:38:43.400Z,15.82
2023-10-29T20:41:11.906Z,15.88
2023-10-29T20:43:39.673Z,16.07
2023-10-29T20:46:09.986Z,16.27
2023-10-29T20:48:38.626Z,16.38
2023-10-29T20:51:06.314Z,16.50
2023-10-29T20:53:34.045Z,16.61
2023-10-29T20:56:08.097Z,16.64
2023-10-29T20:58:44.467Z,16.75
2023-10-29T21:01:13.786Z,16.79
2023-10-29T21:03:41.445Z,16.69
2023-10-29T21:06:08.804Z,16.79
2023-10-29T21:08:36.190Z,16.74
2023-10-29T21:11:09.584Z,16.80
2023-10-29T21:13:36.973Z,16.90
2023-10-29T21:16:08.704Z,16.99
2023-10-29T21:18:36.597Z,16.96
2023-10-29T21:21:04.861Z,16.89
2023-10-29T21:23:33.051Z,16.86
2023-10-29T21:26:00.376Z,16.85
2023-10-29T21:28:29.868Z,16.84
2023-10-29T21:30:57.530Z,16.84
2023-10-29T21:33:25.358Z,16.78
2023-10-29T21:35:59.150Z,16.75
2023-10-29T21:38:27.741Z,16.70
2023-10-29T21:40:55.174Z,16.68
2023-10-29T21:43:24.772Z,16.73
2023-10-29T21:45:52.185Z,16.80
2023-10-29T21:48:20.239Z,16.86
2023-10-29T21:50:55.344Z,16.79
2023-10-29T21:53:24.006Z,16.69
2023-10-29T21:55:52.278Z,16.67
2023-10-29T21:58:19.445Z,16.67
2023-10-29T22:00:53.936Z,16.68
2023-10-29T22:03:21.545Z,16.73
2023-10-29T22:05:59.907Z,16.74
2023-10-29T22:08:28.261Z,16.76
2023-10-29T22:11:00.190Z,16.83
2023-10-29T22:13:30.911Z,16.75
2023-10-29T22:16:12.279Z,16.69
2023-10-29T22:18:40.615Z,16.79
2023-10-29T22:21:12.772Z,16.84
2023-10-29T22:23:41.382Z,16.80
2023-10-29T22:26:09.609Z,16.87
2023-10-29T22:28:40.418Z,16.94
2023-10-29T22:31:08.076Z,16.98
2023-10-29T22:33:35.357Z,17.11
2023-10-29T22:36:04.952Z,17.19
2023-10-29T22:38:32.628Z,17.24
2023-10-29T22:41:07.648Z,17.29
2023-10-29T22:43:35.807Z,17.18
2023-10-29T22:46:03.676Z,17.17
2023-10-29T22:48:31.308Z,17.09
2023-10-29T22:51:02.853Z,17.01
2023-10-29T22:53:30.525Z,17.02
2023-10-29T22:56:01.505Z,17.06
2023-10-29T22:58:29.571Z,17.10
2023-10-29T23:00:57.130Z,17.10
2023-10-29T23:03:25.740Z,17.14
2023-10-29T23:05:53.786Z,17.13
2023-10-29T23:08:21.454Z,17.03
2023-10-29T23:10:50.082Z,17.06
2023-10-29T23:13:18.670Z,17.11
2023-10-29T23:15:46.322Z,17.15
2023-10-29T23:18:14.057Z,17.06
2023-10-29T23:20:41.529Z,17.07
2023-10-29T23:23:16.652Z,17.05
2023-10-29T23:25:45.887Z,17.01
2023-10-29T23:28:23.062Z,17.09
2023-10-29T23:31:01.534Z,17.13
2023-10-29T23:33:29.360Z,17.21
2023-10-29T23:35:56.643Z,17.20
2023-10-29T23:38:24.743Z,17.10
2023-10-29T23:40:51.905Z,17.00
2023-10-29T23:43:19.030Z,17.07
2023-10-29T23:45:46.993Z,17.03
2023-10-29T23:48:14.668Z,17.00
2023-10-29T23:50:41.953Z,16.94
2023-10-29T23:53:09.903Z,17.03
2023-10-29T23:55:37.053Z,17.14
2023-10-29T23:58:04.656Z,17.15
